Lytle Creek, California
Current Conditions -  °F | °C
As of 3:53 AM on Sunday 21 Dec 2014 (Local Time) from KONT Reporting Station
Broken Clouds Broken Clouds  
Wind Chill: 46°   Ceiling: 20000
Heat Index: 46°   Visibility: 7mi
Dew Point: 43°   Wind: 0mph
Humidity: 89%   Direction: NA
Pressure: 30.11"   Gusts: NA
Location:  34.26°N, 117.5°W
Report Text: KONT 211153Z 00000KT 7SM BKN200 08/06 A3011 RMK AO2 SLP198 T00780061 10111 20078 58014
Loading
Personal Weather Stations






























Interactive Weather Map New forecast layout! Learn more

10-Day Weather Forecast

Advertisements
Track Severe Weather on mobile